8  °C
Temperature
5  °C
  Dewpoint
   Humidity
Temp | Dewpoint | Humidity
3  km/h
Wind Speed
2  mph
Wind Speed
2  kts
Wind Speed
340°
North North
West

Wind Speed
Overcast
Conditions
Pressure 1019.92 (hPa) - 30.12 (in)
Visibility 5.6 (mi) - 9.0 (km)

Current Conditions
LKLN
Location 6km (3.2mi)
Metar :LKLN 242100Z AUTO 34002KT 9000 OVC025 08/05 Q1020
Sun 24th March 22:00 pm

Airport
  Metar Aviation API Data Provided by https://www.checkwx.com/ CSS/SVG/PHP scripts by weather34.com © 2015-2019